Time;durP1;ratioP1;P1;durP2;ratioP2;P2;SDS_P1;SDS_P2;PMS_P1;PMS_P2;Temp;Humidity;BMP_temperature;BMP_pressure;BME280_temperature;BME280_humidity;BME280_pressure;Samples;Min_cycle;Max_cycle;Signal;HPM_P1;HPM_P2
2021/07/06 00:01:11;;;;;;;;;;;;;;;-142.75;77.25;75822.34;5085154;28;19922;-83
2021/07/06 00:03:36;;;;;;;;;;;;;;;-142.75;77.58;75824.31;5083525;28;19916;-82
2021/07/06 00:06:02;;;;;;;;;;;;;;;-142.75;78.39;75842.03;5081996;28;20335;-80
2021/07/06 00:08:27;;;;;;;;;;;;;;;-142.75;78.23;75838.09;5080164;28;19917;-82
2021/07/06 00:10:52;;;;;;;;;;;;;;;-142.75;78.20;75830.22;5079668;28;19916;-82
2021/07/06 00:13:18;;;;;;;;;;;;;;;-142.75;78.46;75824.31;5084841;28;19934;-80
2021/07/06 00:15:43;;;;;;;;;;;;;;;-142.75;78.68;75826.28;5081390;28;19962;-81
2021/07/06 00:18:08;;;;;;;;;;;;;;;-142.75;79.18;75824.31;5081761;28;19917;-80
2021/07/06 00:20:34;;;;;;;;;;;;;;;-142.75;79.17;75820.38;5081295;28;19917;-79
2021/07/06 00:23:03;;;;;;;;;;;;;;;-142.75;79.44;75816.44;5093413;28;21410;-81
2021/07/06 00:25:28;;;;;;;;;;;;;;;-142.75;79.14;75816.44;5085152;28;19916;-80
2021/07/06 00:27:53;;;;;;;;;;;;;;;-142.75;79.10;75820.38;5081590;28;19939;-80
2021/07/06 00:30:19;;;;;;;;;;;;;;;-142.75;79.26;75812.50;5082482;28;19975;-80
2021/07/06 00:32:44;;;;;;;;;;;;;;;-142.75;79.27;75812.50;5098239;28;19916;-79
2021/07/06 00:35:10;;;;;;;;;;;;;;;-142.75;79.30;75808.56;5083177;28;19920;-80
2021/07/06 00:37:35;;;;;;;;;;;;;;;-142.75;78.96;75812.50;5078981;28;20370;-80
2021/07/06 00:40:01;;;;;;;;;;;;;;;-142.75;79.31;75802.66;5081940;28;19927;-81
2021/07/06 00:42:26;;;;;;;;;;;;;;;-142.75;79.56;75798.72;5081049;28;19915;-82
2021/07/06 00:44:53;;;;;;;;;;;;;;;-142.75;79.70;75790.84;5091968;28;19916;-83
2021/07/06 00:47:28;;;;;;;;;;;;;;;-142.75;79.73;75788.88;5083621;28;19973;-84
2021/07/06 00:49:54;;;;;;;;;;;;;;;-142.75;79.82;75784.94;5081059;28;19923;-81
2021/07/06 00:52:19;;;;;;;;;;;;;;;-142.75;80.11;75786.91;5079894;28;19999;-81
2021/07/06 00:54:44;;;;;;;;;;;;;;;-142.75;80.31;75784.94;5092857;28;20031;-82
2021/07/06 00:57:09;;;;;;;;;;;;;;;-142.75;80.22;75782.97;5085301;28;20561;-81
2021/07/06 00:59:35;;;;;;;;;;;;;;;-142.75;80.14;75786.91;5081027;28;19916;-82
2021/07/06 01:02:00;;;;;;;;;;;;;;;-142.75;80.35;75781.00;5081640;28;19985;-82
2021/07/06 01:04:25;;;;;;;;;;;;;;;-142.75;80.68;75771.16;5079216;28;19939;-82
2021/07/06 01:06:50;;;;;;;;;;;;;;;-142.75;80.99;75775.09;5091364;28;19962;-81
2021/07/06 01:09:15;;;;;;;;;;;;;;;-142.75;81.29;75769.19;5081098;28;19916;-82
2021/07/06 01:11:41;;;;;;;;;;;;;;;-142.75;81.39;75771.16;5092431;28;20506;-82
2021/07/06 01:14:06;;;;;;;;;;;;;;;-142.75;81.67;75759.38;5092311;28;19920;-82
2021/07/06 01:16:31;;;;;;;;;;;;;;;-142.75;81.54;75759.38;5077036;28;19928;-82
2021/07/06 01:18:57;;;;;;;;;;;;;;;-142.75;81.41;75749.53;5085687;28;20426;-82
2021/07/06 01:21:23;;;;;;;;;;;;;;;-142.75;81.42;75737.72;5091150;28;19951;-80
2021/07/06 01:23:48;;;;;;;;;;;;;;;-142.75;81.33;75739.69;5091563;28;19966;-80
2021/07/06 01:26:13;;;;;;;;;;;;;;;-142.75;81.14;75733.78;5083116;28;20006;-81
2021/07/06 01:28:40;;;;;;;;;;;;;;;-142.75;80.97;75727.88;5077140;28;19920;-80
2021/07/06 01:31:05;;;;;;;;;;;;;;;-142.75;80.60;75721.97;5081925;28;20295;-82
2021/07/06 01:33:32;;;;;;;;;;;;;;;-142.75;80.09;75716.06;5091925;28;19935;-82
2021/07/06 01:36:01;;;;;;;;;;;;;;;-142.75;80.42;75710.16;5091580;28;19969;-83
2021/07/06 01:38:30;;;;;;;;;;;;;;;-142.75;80.29;75704.25;5080115;28;19917;-82
2021/07/06 01:40:55;;;;;;;;;;;;;;;-142.75;79.90;75700.31;5074454;28;20381;-82
2021/07/06 01:43:20;;;;;;;;;;;;;;;-142.75;79.69;75692.44;5090335;28;19969;-82
2021/07/06 01:45:46;;;;;;;;;;;;;;;-142.75;79.63;75694.41;5081007;28;19916;-79
2021/07/06 01:48:11;;;;;;;;;;;;;;;-142.75;79.59;75688.50;5090849;28;19920;-81
2021/07/06 01:50:38;;;;;;;;;;;;;;;-142.75;79.41;75680.63;5078692;28;20374;-80
2021/07/06 01:53:04;;;;;;;;;;;;;;;-142.75;79.13;75680.63;5080638;28;20003;-80
2021/07/06 01:55:31;;;;;;;;;;;;;;;-142.75;79.43;75684.56;5079987;28;19920;-80
2021/07/06 01:57:57;;;;;;;;;;;;;;;-142.75;79.49;75682.59;5080347;28;19920;-81
2021/07/06 02:00:24;;;;;;;;;;;;;;;-142.75;79.56;75684.56;5093157;28;19924;-80
2021/07/06 02:02:49;;;;;;;;;;;;;;;-142.75;79.87;75678.66;5081158;28;19917;-83
2021/07/06 02:05:15;;;;;;;;;;;;;;;-142.75;80.16;75672.78;5079974;28;19923;-82
2021/07/06 02:07:45;;;;;;;;;;;;;;;-142.75;79.92;75678.66;5091355;28;19926;-81
2021/07/06 02:10:10;;;;;;;;;;;;;;;-142.75;79.87;75680.63;5075080;28;19942;-80
2021/07/06 02:12:36;;;;;;;;;;;;;;;-142.75;79.95;75676.69;5091039;28;19919;-80
2021/07/06 02:15:01;;;;;;;;;;;;;;;-142.75;79.74;75680.63;5091101;28;20384;-83
2021/07/06 02:17:27;;;;;;;;;;;;;;;-142.75;79.49;75672.78;5091554;28;19922;-80
2021/07/06 02:19:52;;;;;;;;;;;;;;;-142.75;79.50;75662.94;5084243;28;20565;-82
2021/07/06 02:22:17;;;;;;;;;;;;;;;-142.75;79.81;75668.84;5080852;28;20417;-80
2021/07/06 02:24:42;;;;;;;;;;;;;;;-142.75;79.76;75664.91;5090714;28;19939;-81
2021/07/06 02:27:07;;;;;;;;;;;;;;;-142.75;79.66;75666.88;5078352;28;19916;-83
2021/07/06 02:29:33;;;;;;;;;;;;;;;-142.75;80.21;75657.03;5090783;28;19920;-81
2021/07/06 02:31:58;;;;;;;;;;;;;;;-142.75;79.87;75649.16;5090600;28;19916;-82
2021/07/06 02:34:23;;;;;;;;;;;;;;;-142.75;80.05;75645.22;5090889;28;20001;-82
2021/07/06 02:36:48;;;;;;;;;;;;;;;-142.75;79.59;75643.25;5083556;28;20010;-82
2021/07/06 02:39:13;;;;;;;;;;;;;;;-142.75;79.22;75637.34;5091004;28;19922;-83
2021/07/06 02:41:38;;;;;;;;;;;;;;;-142.75;79.17;75629.47;5086185;28;19916;-83
2021/07/06 02:44:04;;;;;;;;;;;;;;;-142.75;79.36;75627.50;5090413;28;19961;-80
2021/07/06 02:46:29;;;;;;;;;;;;;;;-142.75;79.50;75625.53;5083916;28;19919;-82
2021/07/06 02:48:54;;;;;;;;;;;;;;;-142.75;79.69;75625.53;5080837;28;20007;-82
2021/07/06 02:51:19;;;;;;;;;;;;;;;-142.75;79.41;75625.53;5082909;28;20389;-82
2021/07/06 02:53:46;;;;;;;;;;;;;;;-142.75;79.57;75623.56;5083326;28;19963;-83
2021/07/06 02:56:11;;;;;;;;;;;;;;;-142.75;79.54;75621.59;5095702;28;19955;-82
2021/07/06 02:58:37;;;;;;;;;;;;;;;-142.75;79.57;75617.66;5094759;28;20427;-80
2021/07/06 03:01:02;;;;;;;;;;;;;;;-142.75;79.40;75613.72;5079096;28;19924;-81
2021/07/06 03:03:27;;;;;;;;;;;;;;;-142.75;79.44;75613.72;5087487;28;20040;-80
2021/07/06 03:05:52;;;;;;;;;;;;;;;-142.75;79.39;75613.72;5083418;28;19920;-80
2021/07/06 03:08:17;;;;;;;;;;;;;;;-142.75;78.93;75625.53;5106884;22;19928;-81
2021/07/06 03:10:43;;;;;;;;;;;;;;;-142.75;79.11;75617.66;5082484;28;19927;-79
2021/07/06 03:13:08;;;;;;;;;;;;;;;-142.75;79.00;75607.81;5061525;28;20343;-78
2021/07/06 03:15:34;;;;;;;;;;;;;;;-142.75;79.03;75594.06;5075509;28;19917;-79
2021/07/06 03:18:00;;;;;;;;;;;;;;;-142.75;78.91;75601.91;5054571;28;20004;-80
2021/07/06 03:20:26;;;;;;;;;;;;;;;-142.75;78.90;75601.91;5054865;28;20394;-85
2021/07/06 03:22:52;;;;;;;;;;;;;;;-142.75;78.29;75596.00;5051308;28;19970;-81
2021/07/06 03:25:18;;;;;;;;;;;;;;;-142.75;78.17;75592.09;5056046;28;19920;-80
2021/07/06 03:27:44;;;;;;;;;;;;;;;-142.75;77.10;75566.50;5055758;28;19971;-79
2021/07/06 03:30:11;;;;;;;;;;;;;;;-142.75;77.12;75566.50;5054984;28;19916;-78
2021/07/06 03:32:36;;;;;;;;;;;;;;;-142.75;77.44;75566.50;5065169;28;19920;-79
2021/07/06 03:35:02;;;;;;;;;;;;;;;-142.75;77.39;75570.44;5044705;28;19932;-78
2021/07/06 03:37:28;;;;;;;;;;;;;;;-142.75;77.20;75562.56;5044044;28;19917;-78
2021/07/06 03:39:53;;;;;;;;;;;;;;;-142.75;76.52;75548.78;5064621;28;19916;-79
2021/07/06 03:42:18;;;;;;;;;;;;;;;-142.75;76.66;75542.88;5055751;28;19917;-78
2021/07/06 03:44:43;;;;;;;;;;;;;;;-142.75;76.87;75538.94;5046861;28;19917;-86
2021/07/06 03:47:09;;;;;;;;;;;;;;;-142.75;76.06;75533.03;5054040;28;19917;-79
2021/07/06 03:49:34;;;;;;;;;;;;;;;-142.75;76.10;75527.13;5054493;28;19916;-78
2021/07/06 03:51:59;;;;;;;;;;;;;;;-142.75;76.04;75519.25;5063710;28;19987;-79
2021/07/06 03:54:24;;;;;;;;;;;;;;;-142.75;76.08;75517.28;5054924;28;19921;-78
2021/07/06 03:56:50;;;;;;;;;;;;;;;-142.75;75.55;75513.38;5045173;28;19921;-80
2021/07/06 03:59:15;;;;;;;;;;;;;;;-142.75;75.19;75507.47;5054808;28;19917;-77
2021/07/06 04:01:40;;;;;;;;;;;;;;;-142.75;74.93;75505.50;5054312;28;19947;-78
2021/07/06 04:04:05;;;;;;;;;;;;;;;-142.75;75.08;75509.44;5054761;28;19924;-77
2021/07/06 04:06:31;;;;;;;;;;;;;;;-142.75;75.21;75519.25;5045144;28;19916;-78
2021/07/06 04:08:56;;;;;;;;;;;;;;;-142.75;75.05;75519.25;5046087;28;19917;-78
2021/07/06 04:11:21;;;;;;;;;;;;;;;-142.75;75.24;75509.44;5054577;28;19928;-78
2021/07/06 04:13:47;;;;;;;;;;;;;;;-142.75;74.99;75515.31;5044524;28;19935;-81
2021/07/06 04:16:13;;;;;;;;;;;;;;;-142.75;74.75;75511.41;5053152;28;19924;-78
2021/07/06 04:18:38;;;;;;;;;;;;;;;-142.75;74.69;75515.31;5054011;28;19920;-78
2021/07/06 04:21:06;;;;;;;;;;;;;;;-142.75;74.73;75515.31;5049592;28;19932;-81
2021/07/06 04:23:32;;;;;;;;;;;;;;;-142.75;74.59;75523.19;5053980;28;19995;-81
2021/07/06 04:25:57;;;;;;;;;;;;;;;-142.75;75.07;75521.22;5053579;28;20369;-79
2021/07/06 04:28:22;;;;;;;;;;;;;;;-142.75;74.89;75523.19;5053966;28;20390;-79
2021/07/06 04:30:47;;;;;;;;;;;;;;;-142.75;74.54;75513.38;5043814;28;19927;-81
2021/07/06 04:33:12;;;;;;;;;;;;;;;-142.75;74.62;75509.44;5054009;28;19925;-80
2021/07/06 04:35:37;;;;;;;;;;;;;;;-142.75;74.44;75503.53;5041275;28;20417;-79
2021/07/06 04:38:03;;;;;;;;;;;;;;;-142.75;74.28;75505.50;5053264;28;19992;-77
2021/07/06 04:40:28;;;;;;;;;;;;;;;-142.75;74.35;75499.59;5059669;28;19988;-79
2021/07/06 04:42:55;;;;;;;;;;;;;;;-142.75;74.17;75509.44;5060804;28;20369;-79
2021/07/06 04:45:20;;;;;;;;;;;;;;;-142.75;74.37;75509.44;5053678;28;19920;-79
2021/07/06 04:47:46;;;;;;;;;;;;;;;-142.75;74.84;75515.31;5054181;28;20055;-81
2021/07/06 04:50:12;;;;;;;;;;;;;;;-142.75;74.68;75521.22;5053683;28;19916;-77
2021/07/06 04:52:40;;;;;;;;;;;;;;;-142.75;74.94;75525.16;5054658;28;20386;-80
2021/07/06 04:55:05;;;;;;;;;;;;;;;-142.75;74.77;75519.25;5053578;28;19932;-82
2021/07/06 04:57:31;;;;;;;;;;;;;;;-142.75;74.63;75517.28;5052258;28;19924;-79
2021/07/06 04:59:56;;;;;;;;;;;;;;;-142.75;74.60;75515.31;5052016;28;20282;-78
2021/07/06 05:02:21;;;;;;;;;;;;;;;-142.75;74.66;75497.63;5040544;28;19956;-79
2021/07/06 05:04:47;;;;;;;;;;;;;;;-142.75;74.29;75507.47;5053169;28;19916;-83
2021/07/06 05:07:12;;;;;;;;;;;;;;;-142.75;74.15;75503.53;5050441;28;19924;-79
2021/07/06 05:09:37;;;;;;;;;;;;;;;-142.75;74.50;75501.56;5052462;28;19928;-79
2021/07/06 05:12:03;;;;;;;;;;;;;;;-142.75;74.29;75501.56;5042544;28;20290;-79
2021/07/06 05:14:28;;;;;;;;;;;;;;;-142.75;74.57;75503.53;5043761;28;20433;-80
2021/07/06 05:16:53;;;;;;;;;;;;;;;-142.75;74.33;75499.59;5054134;28;19964;-81
2021/07/06 05:19:18;;;;;;;;;;;;;;;-142.75;74.19;75487.78;5054050;28;19924;-83
2021/07/06 05:21:43;;;;;;;;;;;;;;;-142.75;74.46;75491.72;5042990;28;20267;-82
2021/07/06 05:24:09;;;;;;;;;;;;;;;-142.75;74.35;75495.66;5044036;28;19916;-83
2021/07/06 05:26:35;;;;;;;;;;;;;;;-142.75;74.77;75507.47;5057797;28;19917;-82
2021/07/06 05:29:00;;;;;;;;;;;;;;;-142.75;73.62;75487.78;5042342;28;19958;-81
2021/07/06 05:31:25;;;;;;;;;;;;;;;-142.75;73.71;75474.00;5047535;28;19942;-79
2021/07/06 05:33:50;;;;;;;;;;;;;;;-142.75;73.60;75479.91;5056944;28;19956;-79
2021/07/06 05:36:17;;;;;;;;;;;;;;;-142.75;73.96;75474.00;5042134;28;20445;-80
2021/07/06 05:38:42;;;;;;;;;;;;;;;-142.75;74.14;75472.03;5056135;28;19916;-82
2021/07/06 05:41:08;;;;;;;;;;;;;;;-142.75;73.77;75468.09;5063497;28;20294;-81
2021/07/06 05:43:34;;;;;;;;;;;;;;;-142.75;73.34;75468.09;5054072;28;19922;-78
2021/07/06 05:45:59;;;;;;;;;;;;;;;-142.75;73.01;75448.41;5055355;28;19924;-82
2021/07/06 05:48:24;;;;;;;;;;;;;;;-142.75;73.20;75440.53;5059990;28;19917;-81
2021/07/06 05:50:49;;;;;;;;;;;;;;;-142.75;72.95;75440.53;5044414;28;19920;-81
2021/07/06 05:53:15;;;;;;;;;;;;;;;-142.75;73.26;75438.56;5058927;28;20032;-81
2021/07/06 05:55:40;;;;;;;;;;;;;;;-142.75;72.91;75436.59;5052930;28;20408;-82
2021/07/06 05:58:06;;;;;;;;;;;;;;;-142.75;73.11;75438.56;5052926;28;19962;-83
2021/07/06 06:00:31;;;;;;;;;;;;;;;-142.75;73.18;75438.56;5052204;28;20425;-83
2021/07/06 06:02:56;;;;;;;;;;;;;;;-142.75;72.75;75444.47;5053730;28;19939;-83
2021/07/06 06:05:21;;;;;;;;;;;;;;;-142.75;71.90;75434.66;5045334;28;19924;-79
2021/07/06 06:07:48;;;;;;;;;;;;;;;-142.75;69.85;75436.59;5052641;28;19920;-80
2021/07/06 06:10:14;;;;;;;;;;;;;;;-142.75;68.62;75444.47;5053307;28;19917;-80
2021/07/06 06:12:39;;;;;;;;;;;;;;;-142.75;66.63;75446.44;5055299;28;20003;-78
2021/07/06 06:15:06;;;;;;;;;;;;;;;-142.75;66.93;75440.53;5053811;28;19917;-80
2021/07/06 06:17:31;;;;;;;;;;;;;;;-142.75;67.17;75442.50;5052833;28;19947;-78
2021/07/06 06:19:56;;;;;;;;;;;;;;;-142.75;67.25;75444.47;5052690;28;19921;-79
2021/07/06 06:22:22;;;;;;;;;;;;;;;-142.75;67.44;75448.41;5047945;28;19924;-78
2021/07/06 06:24:48;;;;;;;;;;;;;;;-142.75;67.73;75440.53;5054430;28;19916;-82
2021/07/06 06:27:13;;;;;;;;;;;;;;;-142.75;66.92;75428.75;5054430;28;19916;-80
2021/07/06 06:29:38;;;;;;;;;;;;;;;-142.75;66.61;75409.06;5055279;28;19917;-83
2021/07/06 06:32:04;;;;;;;;;;;;;;;-142.75;67.51;75389.38;5054566;28;19966;-80
2021/07/06 06:34:29;;;;;;;;;;;;;;;-142.75;67.82;75381.50;5056574;28;19916;-82
2021/07/06 06:36:54;;;;;;;;;;;;;;;-142.75;68.03;75373.63;5056689;28;19917;-79
2021/07/06 06:39:21;;;;;;;;;;;;;;;-142.75;66.54;75365.75;5047866;28;19979;-79
2021/07/06 06:41:46;;;;;;;;;;;;;;;-142.75;66.14;75377.56;5047872;28;20754;-81
2021/07/06 06:44:12;;;;;;;;;;;;;;;-142.75;67.14;75377.56;5058419;28;19917;-80
2021/07/06 06:46:37;;;;;;;;;;;;;;;-142.75;65.21;75379.53;5051521;28;19995;-79
2021/07/06 06:49:04;;;;;;;;;;;;;;;-142.75;65.83;75369.69;5056847;28;19917;-79
2021/07/06 06:51:30;;;;;;;;;;;;;;;-142.75;65.94;75371.66;5057133;28;19947;-79
2021/07/06 06:53:55;;;;;;;;;;;;;;;-142.75;66.33;75369.69;5056093;28;20583;-79
2021/07/06 06:56:20;;;;;;;;;;;;;;;-142.75;65.61;75377.56;5041021;28;19927;-81
2021/07/06 06:58:45;;;;;;;;;;;;;;;-142.75;65.08;75373.63;5056129;28;19956;-78
2021/07/06 07:01:11;;;;;;;;;;;;;;;-142.75;63.33;75353.97;5043217;28;20365;-81
2021/07/06 07:03:36;;;;;;;;;;;;;;;-142.75;62.59;75342.16;5056855;28;19947;-79
2021/07/06 07:06:01;;;;;;;;;;;;;;;-142.75;62.36;75320.50;5056832;28;20402;-80
2021/07/06 07:08:26;;;;;;;;;;;;;;;-142.75;62.85;75291.00;5055887;28;19916;-80
2021/07/06 07:10:52;;;;;;;;;;;;;;;-142.75;60.73;75249.66;5055551;28;19943;-79
2021/07/06 07:13:17;;;;;;;;;;;;;;;-142.75;59.90;75251.63;5043750;28;20053;-82
2021/07/06 07:15:42;;;;;;;;;;;;;;;-142.75;58.92;75241.78;5055206;28;20454;-81
2021/07/06 07:18:08;;;;;;;;;;;;;;;-142.75;58.10;75249.66;5056021;28;19924;-80
2021/07/06 07:20:33;;;;;;;;;;;;;;;-142.75;55.59;75279.19;5056077;28;20387;-80
2021/07/06 07:22:58;;;;;;;;;;;;;;;-142.75;55.64;75291.00;5055234;28;19920;-79
2021/07/06 07:25:23;;;;;;;;;;;;;;;-142.75;56.32;75326.41;5058998;28;19981;-78
2021/07/06 07:27:49;;;;;;;;;;;;;;;-142.75;55.55;75302.78;5054584;28;19917;-80
2021/07/06 07:30:15;;;;;;;;;;;;;;;-142.75;53.41;75245.72;5056996;28;19924;-81
2021/07/06 07:32:41;;;;;;;;;;;;;;;-142.75;54.23;75180.78;5056584;28;19972;-81
2021/07/06 07:35:07;;;;;;;;;;;;;;;-142.75;51.96;75113.88;5050836;28;19970;-79
2021/07/06 07:37:32;;;;;;;;;;;;;;;-142.75;50.97;75015.50;5056426;28;20381;-81
2021/07/06 07:39:57;;;;;;;;;;;;;;;-142.75;49.86;75037.16;5056519;28;20408;-81
2021/07/06 07:42:22;;;;;;;;;;;;;;;-142.75;53.06;74995.81;5046092;28;19948;-81
2021/07/06 07:44:47;;;;;;;;;;;;;;;-142.75;52.21;74917.13;5057788;28;19925;-82
2021/07/06 07:47:13;;;;;;;;;;;;;;;-142.75;51.12;74793.16;5057762;28;19917;-79
2021/07/06 07:49:38;;;;;;;;;;;;;;;-142.75;50.08;74767.56;5055758;28;19920;-81
2021/07/06 07:52:03;;;;;;;;;;;;;;;-142.75;46.71;74704.63;5055509;28;19928;-82
2021/07/06 07:54:29;;;;;;;;;;;;;;;-142.75;46.30;74702.66;5045324;28;19999;-82
2021/07/06 07:56:54;;;;;;;;;;;;;;;-142.75;48.58;74761.66;5046913;28;19917;-83
2021/07/06 07:59:19;;;;;;;;;;;;;;;-142.75;50.05;74881.69;5053985;28;20270;-82
2021/07/06 08:01:44;;;;;;;;;;;;;;;-142.75;49.77;74987.94;5053358;28;19921;-82
2021/07/06 08:04:09;;;;;;;;;;;;;;;-142.75;53.31;74997.78;5051087;28;19917;-81
2021/07/06 08:06:35;;;;;;;;;;;;;;;-142.75;47.69;74909.25;5058196;28;19966;-80
2021/07/06 08:09:00;;;;;;;;;;;;;;;-142.75;45.75;74885.63;5040890;28;20352;-79
2021/07/06 08:11:25;;;;;;;;;;;;;;;-142.75;46.48;74803.00;5054405;28;20645;-78
2021/07/06 08:13:50;;;;;;;;;;;;;;;-142.75;44.99;74694.78;5050015;28;19923;-80
2021/07/06 08:16:15;;;;;;;;;;;;;;;-142.75;44.29;74639.69;5054730;28;20271;-78
2021/07/06 08:18:40;;;;;;;;;;;;;;;-142.75;44.68;74641.66;5055678;28;19999;-81
2021/07/06 08:21:06;;;;;;;;;;;;;;;-142.75;42.86;74596.41;5056126;28;19949;-82
2021/07/06 08:23:31;;;;;;;;;;;;;;;-142.75;42.77;74700.69;5056186;28;20059;-79
2021/07/06 08:25:57;;;;;;;;;;;;;;;-142.75;44.29;74783.31;5045833;28;19917;-80
2021/07/06 08:28:22;;;;;;;;;;;;;;;-142.75;43.56;74826.59;5048563;28;19917;-81
2021/07/06 08:30:48;;;;;;;;;;;;;;;-142.75;45.27;74873.81;5041268;28;20007;-83
2021/07/06 08:33:13;;;;;;;;;;;;;;;-142.75;46.73;74915.16;5041217;28;20379;-81
2021/07/06 08:35:39;;;;;;;;;;;;;;;-142.75;45.20;74928.91;5063116;28;19920;-81
2021/07/06 08:38:04;;;;;;;;;;;;;;;-142.75;45.80;74942.69;5054262;28;19932;-81
2021/07/06 08:40:29;;;;;;;;;;;;;;;-142.75;44.27;74791.19;5040309;28;20394;-81
2021/07/06 08:42:59;;;;;;;;;;;;;;;-142.75;44.31;74759.72;5066945;28;19916;-80
2021/07/06 08:45:25;;;;;;;;;;;;;;;-142.75;42.51;74795.13;5054084;28;19924;-80
2021/07/06 08:47:52;;;;;;;;;;;;;;;-142.75;43.64;74858.09;5053976;28;19997;-85
2021/07/06 08:50:17;;;;;;;;;;;;;;;-142.75;42.79;74779.38;5040302;28;19924;-81
2021/07/06 08:52:45;;;;;;;;;;;;;;;-142.75;40.99;74706.59;5051941;28;19921;-80
2021/07/06 08:55:10;;;;;;;;;;;;;;;-142.75;40.83;74625.91;5051787;28;20438;-81
2021/07/06 08:57:40;;;;;;;;;;;;;;;-142.75;40.03;74519.66;5043278;28;19990;-81
2021/07/06 09:00:07;;;;;;;;;;;;;;;-142.75;38.77;74574.75;5052007;28;19959;-80
2021/07/06 09:02:32;;;;;;;;;;;;;;;-142.75;39.80;74612.13;5043539;28;19917;-78
2021/07/06 09:04:57;;;;;;;;;;;;;;;-142.75;40.90;74743.97;5060465;28;19923;-82
2021/07/06 09:09:49;;;;;;;;;;;;;;;-142.75;41.30;74810.88;5090762;22;20451;-78
2021/07/06 09:12:16;;;;;;;;;;;;;;;-142.75;43.01;74736.09;5059835;28;20018;-79
2021/07/06 09:14:44;;;;;;;;;;;;;;;-142.75;41.42;74714.44;5070651;28;20029;-77
2021/07/06 09:17:18;;;;;;;;;;;;;;;-142.75;41.50;74806.94;5057753;28;19951;-79
2021/07/06 09:19:44;;;;;;;;;;;;;;;-142.75;42.52;74968.28;5062760;28;20412;-78
2021/07/06 09:22:11;;;;;;;;;;;;;;;-142.75;43.72;75058.78;5069821;28;20014;-79
2021/07/06 09:24:36;;;;;;;;;;;;;;;-142.75;44.18;75102.06;5056009;28;20408;-80
2021/07/06 09:27:21;;;;;;;;;;;;;;;-142.75;46.19;75139.47;5070279;28;20007;-79
2021/07/06 09:30:05;;;;;;;;;;;;;;;-142.75;45.91;75176.84;5078316;28;20278;-77
2021/07/06 09:32:30;;;;;;;;;;;;;;;-142.75;46.60;75192.59;5058897;28;20346;-78
2021/07/06 09:34:55;;;;;;;;;;;;;;;-142.75;46.37;75184.72;5064393;28;20011;-78
2021/07/06 09:37:20;;;;;;;;;;;;;;;-142.75;46.51;75190.63;5070541;28;20304;-78
2021/07/06 09:39:46;;;;;;;;;;;;;;;-142.75;46.51;75168.97;5070910;28;19966;-81
2021/07/06 09:42:14;;;;;;;;;;;;;;;-142.75;46.13;75212.28;5068983;28;19923;-77
2021/07/06 09:44:40;;;;;;;;;;;;;;;-142.75;47.77;75180.78;5060463;28;19916;-78
2021/07/06 09:47:08;;;;;;;;;;;;;;;-142.75;47.45;75163.09;5061340;28;19920;-79
2021/07/06 09:49:35;;;;;;;;;;;;;;;-142.75;44.54;75011.56;5069448;28;20007;-78
2021/07/06 09:52:19;;;;;;;;;;;;;;;-142.75;44.92;74901.38;5063606;28;19920;-78
2021/07/06 09:54:45;;;;;;;;;;;;;;;-142.75;42.73;74818.72;5056000;28;19917;-77
2021/07/06 09:57:14;;;;;;;;;;;;;;;-142.75;41.22;74848.25;5066700;28;19924;-80
2021/07/06 10:00:01;;;;;;;;;;;;;;;-142.75;42.47;74978.13;5069206;28;20001;-79
2021/07/06 10:02:27;;;;;;;;;;;;;;;-142.75;44.14;74962.38;5053567;28;20011;-78
2021/07/06 10:04:53;;;;;;;;;;;;;;;-142.75;43.13;74889.56;5071630;28;19917;-76
2021/07/06 10:07:22;;;;;;;;;;;;;;;-142.75;43.18;74795.13;5071833;28;19916;-78
2021/07/06 10:09:47;;;;;;;;;;;;;;;-142.75;40.06;74720.34;5066380;28;20340;-78
2021/07/06 10:12:13;;;;;;;;;;;;;;;-142.75;40.55;74803.00;5073368;28;20005;-79
2021/07/06 10:14:38;;;;;;;;;;;;;;;-142.75;41.17;74883.66;5060972;28;19962;-78
2021/07/06 10:17:05;;;;;;;;;;;;;;;-142.75;40.74;74885.63;5072997;28;19923;-77
2021/07/06 10:19:33;;;;;;;;;;;;;;;-142.75;41.91;74915.16;5073138;28;20401;-78
2021/07/06 10:21:58;;;;;;;;;;;;;;;-142.75;42.29;74905.31;5072395;28;19990;-78
2021/07/06 10:24:23;;;;;;;;;;;;;;;-142.75;42.16;74970.25;5054507;28;20402;-78
2021/07/06 10:26:54;;;;;;;;;;;;;;;-142.75;43.15;75029.28;5072673;28;19917;-78
2021/07/06 10:29:32;;;;;;;;;;;;;;;-142.75;44.81;75062.72;5062186;28;19921;-78
2021/07/06 10:31:57;;;;;;;;;;;;;;;-142.75;43.29;75090.28;5057262;28;19924;-78
2021/07/06 10:34:26;;;;;;;;;;;;;;;-142.75;44.67;75098.16;5072448;28;20411;-78
2021/07/06 10:36:51;;;;;;;;;;;;;;;-142.75;44.31;75050.91;5058361;28;20007;-78
2021/07/06 10:39:18;;;;;;;;;;;;;;;-142.75;44.36;74997.78;5068303;28;19999;-79
2021/07/06 10:41:51;;;;;;;;;;;;;;;-142.75;42.83;75058.78;5064798;28;20294;-77
2021/07/06 10:44:16;;;;;;;;;;;;;;;-142.75;44.16;75058.78;5071435;28;19920;-77
2021/07/06 10:46:43;;;;;;;;;;;;;;;-142.75;44.34;75129.63;5072399;28;19942;-76
2021/07/06 10:49:15;;;;;;;;;;;;;;;-142.75;45.40;75163.09;5072744;28;19951;-78
2021/07/06 10:51:40;;;;;;;;;;;;;;;-142.75;45.71;75216.22;5071637;28;19926;-78
2021/07/06 10:54:14;;;;;;;;;;;;;;;-142.75;46.29;75216.22;5060243;28;20007;-79
2021/07/06 10:56:44;;;;;;;;;;;;;;;-142.75;46.40;75153.25;5072480;28;19959;-77
2021/07/06 10:59:20;;;;;;;;;;;;;;;-142.75;44.48;75137.50;5070713;28;20294;-78
2021/07/06 11:01:45;;;;;;;;;;;;;;;-142.75;45.72;75155.22;5071731;28;19916;-79
2021/07/06 11:04:11;;;;;;;;;;;;;;;-142.75;44.43;75157.19;5071939;28;20540;-77
2021/07/06 11:06:43;;;;;;;;;;;;;;;-142.75;44.62;75202.44;5070514;28;19956;-78
2021/07/06 11:09:08;;;;;;;;;;;;;;;-142.75;45.95;75218.19;5071900;28;19917;-76
2021/07/06 11:11:34;;;;;;;;;;;;;;;-142.75;46.38;75198.50;5064462;28;19921;-76
2021/07/06 11:14:18;;;;;;;;;;;;;;;-142.75;45.98;75200.47;5072512;28;19951;-78
2021/07/06 11:16:43;;;;;;;;;;;;;;;-142.75;46.75;75235.88;5072075;28;19917;-78
2021/07/06 11:19:27;;;;;;;;;;;;;;;-142.75;47.69;75231.94;5072495;28;19917;-78
2021/07/06 11:22:07;;;;;;;;;;;;;;;-142.75;46.37;75237.84;5053121;28;20371;-78
2021/07/06 11:24:38;;;;;;;;;;;;;;;-142.75;46.28;75222.13;5071352;28;20382;-79
2021/07/06 11:27:03;;;;;;;;;;;;;;;-142.75;46.95;75220.16;5055561;28;19962;-78
2021/07/06 11:29:33;;;;;;;;;;;;;;;-142.75;46.90;75253.59;5071759;28;19916;-79
2021/07/06 11:32:09;;;;;;;;;;;;;;;-142.75;46.78;75300.81;5064518;28;20282;-80
2021/07/06 11:34:35;;;;;;;;;;;;;;;-142.75;46.94;75330.34;5071811;28;20369;-78
2021/07/06 11:37:05;;;;;;;;;;;;;;;-142.75;47.53;75381.50;5064967;28;19964;-80
2021/07/06 11:39:30;;;;;;;;;;;;;;;-142.75;48.32;75391.34;5071639;28;19969;-78
2021/07/06 11:41:56;;;;;;;;;;;;;;;-142.75;47.88;75393.31;5071919;28;19916;-78
2021/07/06 11:44:21;;;;;;;;;;;;;;;-142.75;48.17;75385.44;5072354;28;19917;-77
2021/07/06 11:46:46;;;;;;;;;;;;;;;-142.75;47.84;75395.28;5063107;28;20468;-78
2021/07/06 11:49:11;;;;;;;;;;;;;;;-142.75;47.49;75391.34;5065148;28;19917;-79
2021/07/06 11:51:40;;;;;;;;;;;;;;;-142.75;47.89;75379.53;5071245;28;19981;-77
2021/07/06 11:54:07;;;;;;;;;;;;;;;-142.75;47.65;75371.66;5066602;28;20119;-79
2021/07/06 11:56:36;;;;;;;;;;;;;;;-142.75;49.09;75383.47;5061322;28;19925;-79
2021/07/06 11:59:01;;;;;;;;;;;;;;;-142.75;49.04;75399.22;5071486;28;20388;-79
2021/07/06 12:01:27;;;;;;;;;;;;;;;-142.75;48.34;75391.34;5060910;28;19916;-78
2021/07/06 12:03:52;;;;;;;;;;;;;;;-142.75;49.35;75432.69;5058022;28;19920;-80
2021/07/06 12:06:21;;;;;;;;;;;;;;;-142.75;49.45;75426.78;5071395;28;19917;-79
2021/07/06 12:08:50;;;;;;;;;;;;;;;-142.75;49.77;75416.94;5055524;28;20408;-78
2021/07/06 12:11:16;;;;;;;;;;;;;;;-142.75;49.86;75413.00;5069912;28;19923;-79
2021/07/06 12:13:41;;;;;;;;;;;;;;;-142.75;48.13;75336.25;5062364;28;19916;-79
2021/07/06 12:16:20;;;;;;;;;;;;;;;-142.75;47.83;75314.59;5065066;28;19916;-79
2021/07/06 12:18:48;;;;;;;;;;;;;;;-142.75;47.80;75267.38;5062863;28;19916;-80
2021/07/06 12:21:19;;;;;;;;;;;;;;;-142.75;48.23;75224.09;5052111;28;19916;-79
2021/07/06 12:23:45;;;;;;;;;;;;;;;-142.75;46.33;75228.00;5058466;28;19943;-78
2021/07/06 12:26:11;;;;;;;;;;;;;;;-142.75;47.14;75275.25;5059749;28;20374;-79